»·PEaware :: N733CP KBFL-KMHV

N733CP :: KBFL-KMHV

FLIGHT INFORMATION

Flight Status: Arrived
Operator: Privately registered:
United States
More flights under this callsign
Pilot: Anonymous 37082 (37082)
Aircraft: CESSNA 172 SKYHAWK
(C172)
More flights by this aircraft type
Origin: KBFL Meadows
United States
Destination: KMHV Mojave
United States
More flights between these airports :: More routes between these airports
Route: MINGI V197 KELEN
File this flight plan on PilotEdge
Remarks:
Altitude:
(Current/Filed)
7,500ft
Speed:
(Current/Filed)
120kts
Departed: 15-Nov-21 07:15 PM
Arrived: 15-Nov-21 07:51 PM
Distance/Time
Traveled:
50nm/0:36
Distance/Time
To Go:
Arrived

Flight Plot

Page will automatically refresh every two minutes.

Flight plan parsing failed; only flown route is shown


Map Options




Map Legend


Flown Route
Filed Route
Departure Airport
Arrival Airport
Navaid (VOR, NDB)
Fix

Horizontal Profiles

Position Reports

Time Latitude Longitude Heading Altitude Ground
Speed
15-Nov-21 19:01 35.431761 -119.048297 137 486ft 0kts
15-Nov-21 19:02 35.431761 -119.048297 137 486ft 0kts
15-Nov-21 19:03 35.431761 -119.048297 137 486ft 0kts
15-Nov-21 19:04 35.431761 -119.048297 137 486ft 0kts
15-Nov-21 19:05 35.431761 -119.048297 136 486ft 0kts
15-Nov-21 19:06 35.431761 -119.048297 136 486ft 0kts
15-Nov-21 19:07 35.431457 -119.048515 225 485ft 7kts
15-Nov-21 19:08 35.429290 -119.048426 135 483ft 12kts
15-Nov-21 19:09 35.426250 -119.044776 136 472ft 8kts
15-Nov-21 19:10 35.425824 -119.044593 283 471ft 0kts
15-Nov-21 19:11 35.425824 -119.044593 283 471ft 0kts
15-Nov-21 19:12 35.425824 -119.044593 283 471ft 0kts
15-Nov-21 19:13 35.425555 -119.045119 250 472ft 12kts
15-Nov-21 19:14 35.432415 -119.054381 315 588ft 84kts
15-Nov-21 19:15 35.451859 -119.068033 40 1321ft 100kts
15-Nov-21 19:16 35.458290 -119.036425 135 1672ft 117kts
15-Nov-21 19:17 35.435429 -119.008751 133 1796ft 105kts
15-Nov-21 19:18 35.418800 -118.986217 129 2328ft 84kts
15-Nov-21 19:19 35.404299 -118.963380 125 2897ft 86kts
15-Nov-21 19:20 35.389827 -118.939696 152 3395ft 88kts
15-Nov-21 19:21 35.369445 -118.922552 144 3901ft 90kts
15-Nov-21 19:22 35.348890 -118.904436 144 4394ft 91kts
15-Nov-21 19:23 35.328051 -118.886126 145 4868ft 93kts
15-Nov-21 19:24 35.307006 -118.867554 147 5292ft 94kts
15-Nov-21 19:25 35.285482 -118.848584 149 5788ft 96kts
15-Nov-21 19:26 35.263552 -118.829167 150 6263ft 98kts
15-Nov-21 19:27 35.241223 -118.809398 151 6708ft 99kts
15-Nov-21 19:28 35.218650 -118.789428 152 7122ft 100kts
15-Nov-21 19:29 35.195763 -118.769185 152 7534ft 101kts
15-Nov-21 19:30 35.172767 -118.743956 143 7721ft 126kts
15-Nov-21 19:31 35.145751 -118.713358 144 7712ft 132kts
15-Nov-21 19:32 35.122359 -118.680209 89 7717ft 133kts
15-Nov-21 19:33 35.117224 -118.635220 95 7678ft 133kts
15-Nov-21 19:34 35.112004 -118.591904 96 7697ft 131kts
15-Nov-21 19:35 35.106603 -118.546925 97 7667ft 137kts
15-Nov-21 19:36 35.101181 -118.501790 97 7677ft 133kts
15-Nov-21 19:37 35.095743 -118.456268 98 7678ft 134kts
15-Nov-21 19:38 35.090329 -118.411028 98 7111ft 130kts
15-Nov-21 19:39 35.085157 -118.367815 100 6405ft 121kts
15-Nov-21 19:41 35.080302 -118.327247 99 6407ft 116kts
15-Nov-21 19:42 35.075276 -118.286215 99 6341ft 127kts
15-Nov-21 19:43 35.068075 -118.247834 94 5610ft 111kts
15-Nov-21 19:44 35.084460 -118.208732 79 4358ft 105kts
15-Nov-21 19:45 35.090826 -118.174557 73 3747ft 97kts
15-Nov-21 19:46 35.070672 -118.161478 206 3542ft 70kts
15-Nov-21 19:47 35.055520 -118.175297 220 3463ft 71kts
15-Nov-21 19:48 35.038376 -118.155757 133 3280ft 91kts
15-Nov-21 19:49 35.029082 -118.127737 28 3322ft 91kts
15-Nov-21 19:50 35.046160 -118.132682 310 2729ft 64kts
15-Nov-21 19:51 35.054041 -118.142091 314 2730ft 40kts
15-Nov-21 19:52 35.057604 -118.147847 272 2749ft 2kts
15-Nov-21 19:53 35.057583 -118.153316 244 2759ft 6kts

Navigation Log

Ident Type
Flight plan parsing failed, navigation log unavailable